X  Chiuso Dati meteorologici dell'aviazione (METAR)     LIRA Ciampino–G. B. Pastine International Airport
Temperatura
13°C Temperatura
11°C Punto di rugiada
88% Umidità



Vento
3 KM/O
2 MPH
1 M/S
2 KTS



340°
NNO
Condizioni attuali

Chiaro Chiaro
Pressione 1017.92 (hPa) - 30.06 (inHg)
Visibilità 6.2 (miglio) - 10 (km)
Aeroporto
Codice-Aeroporto LIRA

Posizione: Ciampino–G. B. Pastine International Airport
Distanza: 48 (km)

Metar:
LIRA 090350Z AUTO 34002KT 9999 NCD 13/11 Q1018

Ore: 09-05-2021 05:50 CEST